sensor_id;sensor_type;location;lat;lon;timestamp;P1;durP1;ratioP1;P2;durP2;ratioP2
14326;SDS011;7247;53.330;-1.180;2023-05-15T00:01:30;8.03;;;3.67;;
14326;SDS011;7247;53.330;-1.180;2023-05-15T00:03:56;8.67;;;3.70;;
14326;SDS011;7247;53.330;-1.180;2023-05-15T00:06:22;10.13;;;4.03;;
14326;SDS011;7247;53.330;-1.180;2023-05-15T00:08:49;10.80;;;3.70;;
14326;SDS011;7247;53.330;-1.180;2023-05-15T00:11:15;8.17;;;3.47;;
14326;SDS011;7247;53.330;-1.180;2023-05-15T00:13:43;8.60;;;3.60;;
14326;SDS011;7247;53.330;-1.180;2023-05-15T00:16:10;9.83;;;3.43;;
14326;SDS011;7247;53.330;-1.180;2023-05-15T00:18:36;9.60;;;3.27;;
14326;SDS011;7247;53.330;-1.180;2023-05-15T00:21:02;9.97;;;3.93;;
14326;SDS011;7247;53.330;-1.180;2023-05-15T00:23:29;12.27;;;3.57;;
14326;SDS011;7247;53.330;-1.180;2023-05-15T00:25:55;9.70;;;3.93;;
14326;SDS011;7247;53.330;-1.180;2023-05-15T00:28:22;9.00;;;3.67;;
14326;SDS011;7247;53.330;-1.180;2023-05-15T00:30:49;7.80;;;3.43;;
14326;SDS011;7247;53.330;-1.180;2023-05-15T00:33:16;9.70;;;3.50;;
14326;SDS011;7247;53.330;-1.180;2023-05-15T00:35:43;12.87;;;3.10;;
14326;SDS011;7247;53.330;-1.180;2023-05-15T00:38:10;13.87;;;3.57;;
14326;SDS011;7247;53.330;-1.180;2023-05-15T00:40:36;7.97;;;3.23;;
14326;SDS011;7247;53.330;-1.180;2023-05-15T00:43:03;13.10;;;3.40;;
14326;SDS011;7247;53.330;-1.180;2023-05-15T00:45:30;11.60;;;3.43;;
14326;SDS011;7247;53.330;-1.180;2023-05-15T00:47:58;10.07;;;3.10;;
14326;SDS011;7247;53.330;-1.180;2023-05-15T00:50:25;12.80;;;3.53;;
14326;SDS011;7247;53.330;-1.180;2023-05-15T00:52:52;9.27;;;3.80;;
14326;SDS011;7247;53.330;-1.180;2023-05-15T00:55:19;11.37;;;3.60;;
14326;SDS011;7247;53.330;-1.180;2023-05-15T00:57:45;10.77;;;3.93;;
14326;SDS011;7247;53.330;-1.180;2023-05-15T01:00:13;12.40;;;3.40;;
14326;SDS011;7247;53.330;-1.180;2023-05-15T01:02:42;10.90;;;3.23;;
14326;SDS011;7247;53.330;-1.180;2023-05-15T01:05:11;9.07;;;3.00;;
14326;SDS011;7247;53.330;-1.180;2023-05-15T01:07:39;7.83;;;3.13;;
14326;SDS011;7247;53.330;-1.180;2023-05-15T01:10:08;13.40;;;3.20;;
14326;SDS011;7247;53.330;-1.180;2023-05-15T01:12:35;10.63;;;3.30;;
14326;SDS011;7247;53.330;-1.180;2023-05-15T01:15:03;7.47;;;2.73;;
14326;SDS011;7247;53.330;-1.180;2023-05-15T01:17:30;10.50;;;2.80;;
14326;SDS011;7247;53.330;-1.180;2023-05-15T01:19:56;9.60;;;2.73;;
14326;SDS011;7247;53.330;-1.180;2023-05-15T01:22:36;7.30;;;2.37;;
14326;SDS011;7247;53.330;-1.180;2023-05-15T01:25:15;8.70;;;2.47;;
14326;SDS011;7247;53.330;-1.180;2023-05-15T01:27:46;5.83;;;2.10;;
14326;SDS011;7247;53.330;-1.180;2023-05-15T01:30:17;7.23;;;2.20;;
14326;SDS011;7247;53.330;-1.180;2023-05-15T01:32:46;6.93;;;2.10;;
14326;SDS011;7247;53.330;-1.180;2023-05-15T01:35:15;6.00;;;2.13;;
14326;SDS011;7247;53.330;-1.180;2023-05-15T01:37:44;4.87;;;2.17;;
14326;SDS011;7247;53.330;-1.180;2023-05-15T01:40:14;10.57;;;2.63;;
14326;SDS011;7247;53.330;-1.180;2023-05-15T01:42:42;8.50;;;2.40;;
14326;SDS011;7247;53.330;-1.180;2023-05-15T01:45:11;7.07;;;2.30;;
14326;SDS011;7247;53.330;-1.180;2023-05-15T01:47:39;7.40;;;2.17;;
14326;SDS011;7247;53.330;-1.180;2023-05-15T01:50:07;8.53;;;2.77;;
14326;SDS011;7247;53.330;-1.180;2023-05-15T01:52:35;5.40;;;2.50;;
14326;SDS011;7247;53.330;-1.180;2023-05-15T01:55:04;7.00;;;2.30;;
14326;SDS011;7247;53.330;-1.180;2023-05-15T01:57:31;8.17;;;2.27;;
14326;SDS011;7247;53.330;-1.180;2023-05-15T01:59:58;5.73;;;2.10;;
14326;SDS011;7247;53.330;-1.180;2023-05-15T02:02:27;6.10;;;1.80;;
14326;SDS011;7247;53.330;-1.180;2023-05-15T02:04:54;4.00;;;1.80;;
14326;SDS011;7247;53.330;-1.180;2023-05-15T02:07:21;4.20;;;1.80;;
14326;SDS011;7247;53.330;-1.180;2023-05-15T02:09:48;5.97;;;1.60;;
14326;SDS011;7247;53.330;-1.180;2023-05-15T02:12:16;5.27;;;1.77;;
14326;SDS011;7247;53.330;-1.180;2023-05-15T02:14:43;5.23;;;1.90;;
14326;SDS011;7247;53.330;-1.180;2023-05-15T02:17:10;4.13;;;1.93;;
14326;SDS011;7247;53.330;-1.180;2023-05-15T02:19:37;5.17;;;1.60;;
14326;SDS011;7247;53.330;-1.180;2023-05-15T02:22:04;8.03;;;2.03;;
14326;SDS011;7247;53.330;-1.180;2023-05-15T02:24:30;6.40;;;1.90;;
14326;SDS011;7247;53.330;-1.180;2023-05-15T02:26:59;4.67;;;1.90;;
14326;SDS011;7247;53.330;-1.180;2023-05-15T02:29:27;4.60;;;1.80;;
14326;SDS011;7247;53.330;-1.180;2023-05-15T02:31:55;4.53;;;1.93;;
14326;SDS011;7247;53.330;-1.180;2023-05-15T02:34:25;8.30;;;1.70;;
14326;SDS011;7247;53.330;-1.180;2023-05-15T02:36:54;4.03;;;1.60;;
14326;SDS011;7247;53.330;-1.180;2023-05-15T02:39:23;8.00;;;1.70;;
14326;SDS011;7247;53.330;-1.180;2023-05-15T02:41:49;4.43;;;1.80;;
14326;SDS011;7247;53.330;-1.180;2023-05-15T02:44:17;6.40;;;1.70;;
14326;SDS011;7247;53.330;-1.180;2023-05-15T02:46:43;6.53;;;2.23;;
14326;SDS011;7247;53.330;-1.180;2023-05-15T02:49:10;5.90;;;1.80;;
14326;SDS011;7247;53.330;-1.180;2023-05-15T02:51:37;6.57;;;1.77;;
14326;SDS011;7247;53.330;-1.180;2023-05-15T02:54:05;5.87;;;1.87;;
14326;SDS011;7247;53.330;-1.180;2023-05-15T02:56:33;6.00;;;1.77;;
14326;SDS011;7247;53.330;-1.180;2023-05-15T02:58:59;6.40;;;2.33;;
14326;SDS011;7247;53.330;-1.180;2023-05-15T03:01:26;6.70;;;1.80;;
14326;SDS011;7247;53.330;-1.180;2023-05-15T03:03:52;9.03;;;2.17;;
14326;SDS011;7247;53.330;-1.180;2023-05-15T03:06:18;4.17;;;1.80;;
14326;SDS011;7247;53.330;-1.180;2023-05-15T03:08:45;5.13;;;1.90;;
14326;SDS011;7247;53.330;-1.180;2023-05-15T03:11:13;7.20;;;2.20;;
14326;SDS011;7247;53.330;-1.180;2023-05-15T03:13:39;5.00;;;1.97;;
14326;SDS011;7247;53.330;-1.180;2023-05-15T03:16:05;7.80;;;1.70;;
14326;SDS011;7247;53.330;-1.180;2023-05-15T03:18:32;5.17;;;1.90;;
14326;SDS011;7247;53.330;-1.180;2023-05-15T03:20:58;7.50;;;1.80;;
14326;SDS011;7247;53.330;-1.180;2023-05-15T03:23:25;6.10;;;1.90;;
14326;SDS011;7247;53.330;-1.180;2023-05-15T03:25:51;10.53;;;2.17;;
14326;SDS011;7247;53.330;-1.180;2023-05-15T03:28:19;7.73;;;2.07;;
14326;SDS011;7247;53.330;-1.180;2023-05-15T03:30:45;4.97;;;1.90;;
14326;SDS011;7247;53.330;-1.180;2023-05-15T03:33:11;5.37;;;2.00;;
14326;SDS011;7247;53.330;-1.180;2023-05-15T03:35:38;8.60;;;2.77;;
14326;SDS011;7247;53.330;-1.180;2023-05-15T03:38:04;6.10;;;1.93;;
14326;SDS011;7247;53.330;-1.180;2023-05-15T03:40:31;7.53;;;1.93;;
14326;SDS011;7247;53.330;-1.180;2023-05-15T03:42:57;6.80;;;1.90;;
14326;SDS011;7247;53.330;-1.180;2023-05-15T03:45:25;6.50;;;2.10;;
14326;SDS011;7247;53.330;-1.180;2023-05-15T03:47:51;4.53;;;1.60;;
14326;SDS011;7247;53.330;-1.180;2023-05-15T03:50:18;5.27;;;2.30;;
14326;SDS011;7247;53.330;-1.180;2023-05-15T03:52:44;7.03;;;1.90;;
14326;SDS011;7247;53.330;-1.180;2023-05-15T03:55:10;8.63;;;2.00;;
14326;SDS011;7247;53.330;-1.180;2023-05-15T03:57:37;4.07;;;1.83;;
14326;SDS011;7247;53.330;-1.180;2023-05-15T04:00:06;8.80;;;2.40;;
14326;SDS011;7247;53.330;-1.180;2023-05-15T04:02:35;4.80;;;2.00;;
14326;SDS011;7247;53.330;-1.180;2023-05-15T04:05:02;7.20;;;1.90;;
14326;SDS011;7247;53.330;-1.180;2023-05-15T04:07:29;6.17;;;2.00;;
14326;SDS011;7247;53.330;-1.180;2023-05-15T04:09:55;6.33;;;2.10;;
14326;SDS011;7247;53.330;-1.180;2023-05-15T04:12:25;6.37;;;1.93;;
14326;SDS011;7247;53.330;-1.180;2023-05-15T04:14:53;5.60;;;1.77;;
14326;SDS011;7247;53.330;-1.180;2023-05-15T04:17:20;5.27;;;2.00;;
14326;SDS011;7247;53.330;-1.180;2023-05-15T04:19:47;4.67;;;1.83;;
14326;SDS011;7247;53.330;-1.180;2023-05-15T04:22:14;5.93;;;1.77;;
14326;SDS011;7247;53.330;-1.180;2023-05-15T04:24:40;5.60;;;1.87;;
14326;SDS011;7247;53.330;-1.180;2023-05-15T04:27:06;8.50;;;2.03;;
14326;SDS011;7247;53.330;-1.180;2023-05-15T04:29:33;9.47;;;2.10;;
14326;SDS011;7247;53.330;-1.180;2023-05-15T04:31:59;6.63;;;1.90;;
14326;SDS011;7247;53.330;-1.180;2023-05-15T04:34:26;8.43;;;2.20;;
14326;SDS011;7247;53.330;-1.180;2023-05-15T04:36:54;8.80;;;2.13;;
14326;SDS011;7247;53.330;-1.180;2023-05-15T04:39:21;6.90;;;2.07;;
14326;SDS011;7247;53.330;-1.180;2023-05-15T04:41:47;7.77;;;2.03;;
14326;SDS011;7247;53.330;-1.180;2023-05-15T04:44:14;7.77;;;2.10;;
14326;SDS011;7247;53.330;-1.180;2023-05-15T04:46:40;4.83;;;1.80;;
14326;SDS011;7247;53.330;-1.180;2023-05-15T04:49:06;10.23;;;2.10;;
14326;SDS011;7247;53.330;-1.180;2023-05-15T04:51:33;6.40;;;2.23;;
14326;SDS011;7247;53.330;-1.180;2023-05-15T04:54:00;7.90;;;1.70;;
14326;SDS011;7247;53.330;-1.180;2023-05-15T04:56:27;11.13;;;1.90;;
14326;SDS011;7247;53.330;-1.180;2023-05-15T04:58:53;5.60;;;1.90;;
14326;SDS011;7247;53.330;-1.180;2023-05-15T05:01:20;6.20;;;2.20;;
14326;SDS011;7247;53.330;-1.180;2023-05-15T05:03:46;4.17;;;1.83;;
14326;SDS011;7247;53.330;-1.180;2023-05-15T05:06:13;7.10;;;1.73;;
14326;SDS011;7247;53.330;-1.180;2023-05-15T05:08:39;7.57;;;2.20;;
14326;SDS011;7247;53.330;-1.180;2023-05-15T05:11:07;4.83;;;1.90;;
14326;SDS011;7247;53.330;-1.180;2023-05-15T05:13:33;9.17;;;2.10;;
14326;SDS011;7247;53.330;-1.180;2023-05-15T05:16:00;4.53;;;2.00;;
14326;SDS011;7247;53.330;-1.180;2023-05-15T05:18:26;7.10;;;1.93;;
14326;SDS011;7247;53.330;-1.180;2023-05-15T05:20:57;6.83;;;2.27;;
14326;SDS011;7247;53.330;-1.180;2023-05-15T05:23:24;10.70;;;2.17;;
14326;SDS011;7247;53.330;-1.180;2023-05-15T05:25:50;13.37;;;2.27;;
14326;SDS011;7247;53.330;-1.180;2023-05-15T05:28:18;7.47;;;2.10;;
14326;SDS011;7247;53.330;-1.180;2023-05-15T05:30:44;8.83;;;2.20;;
14326;SDS011;7247;53.330;-1.180;2023-05-15T05:33:11;8.73;;;2.97;;
14326;SDS011;7247;53.330;-1.180;2023-05-15T05:35:37;6.33;;;1.90;;
14326;SDS011;7247;53.330;-1.180;2023-05-15T05:38:04;8.73;;;2.20;;
14326;SDS011;7247;53.330;-1.180;2023-05-15T05:40:30;7.00;;;1.90;;
14326;SDS011;7247;53.330;-1.180;2023-05-15T05:42:59;9.33;;;2.63;;
14326;SDS011;7247;53.330;-1.180;2023-05-15T05:45:27;8.63;;;2.00;;
14326;SDS011;7247;53.330;-1.180;2023-05-15T05:47:53;7.30;;;2.37;;
14326;SDS011;7247;53.330;-1.180;2023-05-15T05:50:20;7.50;;;1.97;;
14326;SDS011;7247;53.330;-1.180;2023-05-15T05:52:46;11.37;;;2.00;;
14326;SDS011;7247;53.330;-1.180;2023-05-15T05:55:13;7.00;;;2.13;;
14326;SDS011;7247;53.330;-1.180;2023-05-15T05:57:39;8.97;;;1.90;;
14326;SDS011;7247;53.330;-1.180;2023-05-15T06:00:06;7.90;;;2.20;;
14326;SDS011;7247;53.330;-1.180;2023-05-15T06:02:35;6.67;;;2.03;;
14326;SDS011;7247;53.330;-1.180;2023-05-15T06:05:02;6.63;;;1.70;;
14326;SDS011;7247;53.330;-1.180;2023-05-15T06:07:28;7.47;;;1.93;;
14326;SDS011;7247;53.330;-1.180;2023-05-15T06:09:55;5.93;;;2.00;;
14326;SDS011;7247;53.330;-1.180;2023-05-15T06:12:21;10.70;;;1.90;;
14326;SDS011;7247;53.330;-1.180;2023-05-15T06:14:48;6.10;;;1.80;;
14326;SDS011;7247;53.330;-1.180;2023-05-15T06:17:14;6.73;;;1.90;;
14326;SDS011;7247;53.330;-1.180;2023-05-15T06:19:42;7.13;;;1.90;;
14326;SDS011;7247;53.330;-1.180;2023-05-15T06:22:08;4.97;;;1.70;;
14326;SDS011;7247;53.330;-1.180;2023-05-15T06:24:34;6.23;;;1.70;;
14326;SDS011;7247;53.330;-1.180;2023-05-15T06:27:01;7.47;;;1.77;;
14326;SDS011;7247;53.330;-1.180;2023-05-15T06:29:27;6.37;;;1.97;;
14326;SDS011;7247;53.330;-1.180;2023-05-15T06:31:54;5.17;;;1.97;;
14326;SDS011;7247;53.330;-1.180;2023-05-15T06:34:20;6.07;;;2.00;;
14326;SDS011;7247;53.330;-1.180;2023-05-15T06:36:48;8.10;;;2.10;;
14326;SDS011;7247;53.330;-1.180;2023-05-15T06:39:15;9.40;;;2.20;;
14326;SDS011;7247;53.330;-1.180;2023-05-15T06:41:41;7.43;;;2.20;;
14326;SDS011;7247;53.330;-1.180;2023-05-15T06:44:07;5.67;;;1.87;;
14326;SDS011;7247;53.330;-1.180;2023-05-15T06:46:34;8.60;;;2.77;;
14326;SDS011;7247;53.330;-1.180;2023-05-15T06:49:01;8.90;;;1.70;;
14326;SDS011;7247;53.330;-1.180;2023-05-15T06:51:27;7.90;;;1.80;;
14326;SDS011;7247;53.330;-1.180;2023-05-15T06:53:55;4.80;;;1.70;;
14326;SDS011;7247;53.330;-1.180;2023-05-15T06:56:21;7.43;;;1.77;;
14326;SDS011;7247;53.330;-1.180;2023-05-15T06:58:48;8.40;;;1.87;;
14326;SDS011;7247;53.330;-1.180;2023-05-15T07:01:14;6.53;;;1.80;;
14326;SDS011;7247;53.330;-1.180;2023-05-15T07:03:40;6.10;;;1.73;;
14326;SDS011;7247;53.330;-1.180;2023-05-15T07:06:08;6.87;;;2.03;;
14326;SDS011;7247;53.330;-1.180;2023-05-15T07:08:34;5.30;;;1.80;;
14326;SDS011;7247;53.330;-1.180;2023-05-15T07:11:02;7.30;;;2.03;;
14326;SDS011;7247;53.330;-1.180;2023-05-15T07:13:28;6.70;;;1.80;;
14326;SDS011;7247;53.330;-1.180;2023-05-15T07:15:55;7.10;;;1.53;;
14326;SDS011;7247;53.330;-1.180;2023-05-15T07:18:21;6.07;;;1.40;;
14326;SDS011;7247;53.330;-1.180;2023-05-15T07:20:47;10.07;;;2.13;;
14326;SDS011;7247;53.330;-1.180;2023-05-15T07:23:14;5.63;;;2.10;;
14326;SDS011;7247;53.330;-1.180;2023-05-15T07:25:41;8.13;;;1.80;;
14326;SDS011;7247;53.330;-1.180;2023-05-15T07:28:08;7.80;;;2.03;;
14326;SDS011;7247;53.330;-1.180;2023-05-15T07:30:35;7.33;;;1.90;;
14326;SDS011;7247;53.330;-1.180;2023-05-15T07:33:01;8.40;;;1.80;;
14326;SDS011;7247;53.330;-1.180;2023-05-15T07:35:28;6.10;;;1.90;;
14326;SDS011;7247;53.330;-1.180;2023-05-15T07:37:55;7.93;;;2.03;;
14326;SDS011;7247;53.330;-1.180;2023-05-15T07:40:21;4.63;;;1.80;;
14326;SDS011;7247;53.330;-1.180;2023-05-15T07:42:47;8.20;;;1.80;;
14326;SDS011;7247;53.330;-1.180;2023-05-15T07:45:15;4.83;;;1.60;;
14326;SDS011;7247;53.330;-1.180;2023-05-15T07:47:43;8.07;;;2.00;;
14326;SDS011;7247;53.330;-1.180;2023-05-15T07:50:10;5.47;;;1.90;;
14326;SDS011;7247;53.330;-1.180;2023-05-15T07:52:36;7.27;;;1.67;;
14326;SDS011;7247;53.330;-1.180;2023-05-15T07:55:03;8.73;;;2.03;;
14326;SDS011;7247;53.330;-1.180;2023-05-15T07:57:29;5.80;;;1.43;;
14326;SDS011;7247;53.330;-1.180;2023-05-15T07:59:56;4.77;;;1.77;;
14326;SDS011;7247;53.330;-1.180;2023-05-15T08:02:23;6.73;;;1.77;;
14326;SDS011;7247;53.330;-1.180;2023-05-15T08:04:50;7.17;;;1.80;;
14326;SDS011;7247;53.330;-1.180;2023-05-15T08:07:17;7.07;;;1.60;;
14326;SDS011;7247;53.330;-1.180;2023-05-15T08:09:43;9.10;;;1.87;;
14326;SDS011;7247;53.330;-1.180;2023-05-15T08:12:13;7.00;;;1.50;;
14326;SDS011;7247;53.330;-1.180;2023-05-15T08:14:41;6.17;;;1.57;;
14326;SDS011;7247;53.330;-1.180;2023-05-15T08:17:07;7.87;;;1.80;;
14326;SDS011;7247;53.330;-1.180;2023-05-15T08:19:35;6.90;;;1.60;;
14326;SDS011;7247;53.330;-1.180;2023-05-15T08:22:02;5.60;;;1.90;;
14326;SDS011;7247;53.330;-1.180;2023-05-15T08:24:28;5.50;;;1.57;;
14326;SDS011;7247;53.330;-1.180;2023-05-15T08:26:54;6.67;;;2.00;;
14326;SDS011;7247;53.330;-1.180;2023-05-15T08:29:21;5.67;;;1.80;;
14326;SDS011;7247;53.330;-1.180;2023-05-15T08:31:47;7.43;;;1.47;;
14326;SDS011;7247;53.330;-1.180;2023-05-15T08:34:14;6.73;;;1.70;;
14326;SDS011;7247;53.330;-1.180;2023-05-15T08:36:41;9.43;;;2.23;;
14326;SDS011;7247;53.330;-1.180;2023-05-15T08:39:08;6.13;;;1.90;;
14326;SDS011;7247;53.330;-1.180;2023-05-15T08:41:35;4.80;;;1.63;;
14326;SDS011;7247;53.330;-1.180;2023-05-15T08:44:03;3.53;;;1.40;;
14326;SDS011;7247;53.330;-1.180;2023-05-15T08:46:30;3.87;;;1.60;;
14326;SDS011;7247;53.330;-1.180;2023-05-15T08:48:57;3.83;;;1.60;;
14326;SDS011;7247;53.330;-1.180;2023-05-15T08:51:24;7.97;;;1.70;;
14326;SDS011;7247;53.330;-1.180;2023-05-15T08:53:52;6.47;;;1.73;;
14326;SDS011;7247;53.330;-1.180;2023-05-15T08:56:18;6.03;;;1.57;;
14326;SDS011;7247;53.330;-1.180;2023-05-15T08:58:46;4.07;;;1.50;;
14326;SDS011;7247;53.330;-1.180;2023-05-15T09:01:12;6.10;;;1.60;;
14326;SDS011;7247;53.330;-1.180;2023-05-15T09:03:39;5.67;;;1.53;;
14326;SDS011;7247;53.330;-1.180;2023-05-15T09:06:05;5.63;;;1.57;;
14326;SDS011;7247;53.330;-1.180;2023-05-15T09:08:32;5.80;;;1.40;;
14326;SDS011;7247;53.330;-1.180;2023-05-15T09:11:00;6.00;;;1.43;;
14326;SDS011;7247;53.330;-1.180;2023-05-15T09:13:27;4.00;;;1.47;;
14326;SDS011;7247;53.330;-1.180;2023-05-15T09:15:54;5.10;;;1.30;;
14326;SDS011;7247;53.330;-1.180;2023-05-15T09:18:21;3.47;;;1.40;;
14326;SDS011;7247;53.330;-1.180;2023-05-15T09:20:47;6.70;;;1.53;;
14326;SDS011;7247;53.330;-1.180;2023-05-15T09:25:58;4.23;;;1.67;;
14326;SDS011;7247;53.330;-1.180;2023-05-15T09:28:28;6.07;;;1.53;;
14326;SDS011;7247;53.330;-1.180;2023-05-15T09:30:56;5.37;;;1.40;;
14326;SDS011;7247;53.330;-1.180;2023-05-15T09:33:26;4.70;;;1.40;;
14326;SDS011;7247;53.330;-1.180;2023-05-15T09:35:52;3.73;;;1.40;;
14326;SDS011;7247;53.330;-1.180;2023-05-15T09:38:18;4.50;;;1.30;;
14326;SDS011;7247;53.330;-1.180;2023-05-15T09:40:45;3.70;;;1.47;;
14326;SDS011;7247;53.330;-1.180;2023-05-15T09:43:11;7.63;;;1.50;;
14326;SDS011;7247;53.330;-1.180;2023-05-15T09:45:39;3.10;;;1.17;;
14326;SDS011;7247;53.330;-1.180;2023-05-15T09:48:06;3.67;;;1.20;;
14326;SDS011;7247;53.330;-1.180;2023-05-15T09:50:34;4.93;;;1.40;;
14326;SDS011;7247;53.330;-1.180;2023-05-15T09:53:01;3.57;;;1.23;;
14326;SDS011;7247;53.330;-1.180;2023-05-15T09:55:29;3.90;;;1.40;;
14326;SDS011;7247;53.330;-1.180;2023-05-15T09:58:02;4.67;;;1.70;;
14326;SDS011;7247;53.330;-1.180;2023-05-15T10:00:29;3.40;;;1.40;;
14326;SDS011;7247;53.330;-1.180;2023-05-15T10:02:57;2.23;;;1.30;;
14326;SDS011;7247;53.330;-1.180;2023-05-15T10:05:26;5.40;;;1.53;;
14326;SDS011;7247;53.330;-1.180;2023-05-15T10:07:53;3.93;;;1.30;;
14326;SDS011;7247;53.330;-1.180;2023-05-15T10:10:19;3.20;;;1.40;;
14326;SDS011;7247;53.330;-1.180;2023-05-15T10:12:46;4.63;;;1.30;;
14326;SDS011;7247;53.330;-1.180;2023-05-15T10:15:12;2.40;;;1.10;;
14326;SDS011;7247;53.330;-1.180;2023-05-15T10:17:39;2.97;;;1.30;;
14326;SDS011;7247;53.330;-1.180;2023-05-15T10:20:10;4.13;;;1.30;;
14326;SDS011;7247;53.330;-1.180;2023-05-15T10:22:37;6.97;;;1.40;;
14326;SDS011;7247;53.330;-1.180;2023-05-15T10:25:07;5.23;;;1.40;;
14326;SDS011;7247;53.330;-1.180;2023-05-15T10:27:34;2.80;;;1.20;;
14326;SDS011;7247;53.330;-1.180;2023-05-15T10:30:02;3.70;;;1.20;;
14326;SDS011;7247;53.330;-1.180;2023-05-15T10:32:28;3.37;;;1.60;;
14326;SDS011;7247;53.330;-1.180;2023-05-15T10:34:55;6.60;;;1.40;;
14326;SDS011;7247;53.330;-1.180;2023-05-15T10:37:23;3.67;;;1.20;;
14326;SDS011;7247;53.330;-1.180;2023-05-15T10:39:50;2.83;;;1.10;;
14326;SDS011;7247;53.330;-1.180;2023-05-15T10:42:19;3.00;;;1.27;;
14326;SDS011;7247;53.330;-1.180;2023-05-15T10:44:46;1.83;;;1.07;;
14326;SDS011;7247;53.330;-1.180;2023-05-15T10:47:13;2.57;;;1.20;;
14326;SDS011;7247;53.330;-1.180;2023-05-15T10:49:39;2.83;;;1.20;;
14326;SDS011;7247;53.330;-1.180;2023-05-15T10:52:06;3.53;;;1.37;;
14326;SDS011;7247;53.330;-1.180;2023-05-15T10:54:35;4.30;;;1.43;;
14326;SDS011;7247;53.330;-1.180;2023-05-15T10:57:02;3.00;;;1.30;;
14326;SDS011;7247;53.330;-1.180;2023-05-15T10:59:31;2.97;;;1.10;;
14326;SDS011;7247;53.330;-1.180;2023-05-15T11:02:04;6.87;;;1.43;;
14326;SDS011;7247;53.330;-1.180;2023-05-15T11:04:43;2.90;;;1.20;;
14326;SDS011;7247;53.330;-1.180;2023-05-15T11:07:10;3.87;;;1.40;;
14326;SDS011;7247;53.330;-1.180;2023-05-15T11:09:39;2.10;;;1.10;;
14326;SDS011;7247;53.330;-1.180;2023-05-15T11:12:06;2.30;;;1.00;;
14326;SDS011;7247;53.330;-1.180;2023-05-15T11:14:37;3.03;;;1.33;;
14326;SDS011;7247;53.330;-1.180;2023-05-15T11:17:04;2.00;;;0.90;;
14326;SDS011;7247;53.330;-1.180;2023-05-15T11:19:32;2.03;;;1.00;;
14326;SDS011;7247;53.330;-1.180;2023-05-15T11:22:00;1.77;;;1.10;;
14326;SDS011;7247;53.330;-1.180;2023-05-15T11:24:26;2.40;;;1.00;;
14326;SDS011;7247;53.330;-1.180;2023-05-15T11:27:04;1.57;;;1.03;;
14326;SDS011;7247;53.330;-1.180;2023-05-15T11:29:30;2.63;;;1.10;;
14326;SDS011;7247;53.330;-1.180;2023-05-15T11:31:57;5.47;;;1.37;;
14326;SDS011;7247;53.330;-1.180;2023-05-15T11:34:30;3.03;;;1.10;;
14326;SDS011;7247;53.330;-1.180;2023-05-15T11:36:57;2.33;;;0.90;;
14326;SDS011;7247;53.330;-1.180;2023-05-15T11:39:24;2.47;;;1.07;;
14326;SDS011;7247;53.330;-1.180;2023-05-15T11:41:51;2.57;;;0.90;;
14326;SDS011;7247;53.330;-1.180;2023-05-15T11:44:22;1.57;;;0.97;;
14326;SDS011;7247;53.330;-1.180;2023-05-15T11:46:48;3.07;;;1.10;;
14326;SDS011;7247;53.330;-1.180;2023-05-15T11:49:17;4.30;;;1.13;;
14326;SDS011;7247;53.330;-1.180;2023-05-15T11:51:43;2.00;;;0.90;;
14326;SDS011;7247;53.330;-1.180;2023-05-15T11:54:10;2.20;;;1.00;;
14326;SDS011;7247;53.330;-1.180;2023-05-15T11:56:40;2.60;;;1.10;;
14326;SDS011;7247;53.330;-1.180;2023-05-15T11:59:08;2.03;;;0.97;;
14326;SDS011;7247;53.330;-1.180;2023-05-15T12:01:39;1.43;;;0.80;;
14326;SDS011;7247;53.330;-1.180;2023-05-15T12:04:10;2.57;;;0.80;;
14326;SDS011;7247;53.330;-1.180;2023-05-15T12:06:37;2.60;;;1.00;;
14326;SDS011;7247;53.330;-1.180;2023-05-15T12:09:03;1.90;;;1.00;;
14326;SDS011;7247;53.330;-1.180;2023-05-15T12:11:29;1.90;;;0.87;;
14326;SDS011;7247;53.330;-1.180;2023-05-15T12:13:56;2.17;;;1.03;;
14326;SDS011;7247;53.330;-1.180;2023-05-15T12:16:23;2.83;;;1.03;;
14326;SDS011;7247;53.330;-1.180;2023-05-15T12:18:51;1.50;;;1.00;;
14326;SDS011;7247;53.330;-1.180;2023-05-15T12:21:17;1.67;;;1.00;;
14326;SDS011;7247;53.330;-1.180;2023-05-15T12:23:49;3.43;;;1.10;;
14326;SDS011;7247;53.330;-1.180;2023-05-15T12:26:15;3.03;;;1.17;;
14326;SDS011;7247;53.330;-1.180;2023-05-15T12:28:42;1.50;;;0.90;;
14326;SDS011;7247;53.330;-1.180;2023-05-15T12:31:09;1.50;;;0.90;;
14326;SDS011;7247;53.330;-1.180;2023-05-15T12:33:36;1.70;;;0.90;;
14326;SDS011;7247;53.330;-1.180;2023-05-15T12:36:04;2.37;;;1.10;;
14326;SDS011;7247;53.330;-1.180;2023-05-15T12:38:31;2.50;;;0.90;;
14326;SDS011;7247;53.330;-1.180;2023-05-15T12:40:59;3.20;;;1.00;;
14326;SDS011;7247;53.330;-1.180;2023-05-15T12:43:25;1.63;;;1.10;;
14326;SDS011;7247;53.330;-1.180;2023-05-15T12:45:52;1.90;;;1.20;;
14326;SDS011;7247;53.330;-1.180;2023-05-15T12:48:18;2.40;;;0.90;;
14326;SDS011;7247;53.330;-1.180;2023-05-15T12:50:45;2.00;;;1.00;;
14326;SDS011;7247;53.330;-1.180;2023-05-15T12:53:13;3.23;;;1.07;;
14326;SDS011;7247;53.330;-1.180;2023-05-15T12:55:40;3.77;;;1.03;;
14326;SDS011;7247;53.330;-1.180;2023-05-15T12:58:08;1.63;;;1.10;;
14326;SDS011;7247;53.330;-1.180;2023-05-15T13:00:36;2.73;;;1.10;;
14326;SDS011;7247;53.330;-1.180;2023-05-15T13:03:03;1.90;;;1.00;;
14326;SDS011;7247;53.330;-1.180;2023-05-15T13:05:30;1.80;;;1.00;;
14326;SDS011;7247;53.330;-1.180;2023-05-15T13:07:57;1.73;;;0.73;;
14326;SDS011;7247;53.330;-1.180;2023-05-15T13:10:25;3.07;;;1.00;;
14326;SDS011;7247;53.330;-1.180;2023-05-15T13:12:52;1.30;;;0.87;;
14326;SDS011;7247;53.330;-1.180;2023-05-15T13:15:23;2.70;;;1.20;;
14326;SDS011;7247;53.330;-1.180;2023-05-15T13:17:51;1.30;;;1.07;;
14326;SDS011;7247;53.330;-1.180;2023-05-15T13:20:17;1.87;;;1.00;;
14326;SDS011;7247;53.330;-1.180;2023-05-15T13:22:44;2.73;;;1.00;;
14326;SDS011;7247;53.330;-1.180;2023-05-15T13:25:10;1.93;;;0.90;;
14326;SDS011;7247;53.330;-1.180;2023-05-15T13:27:38;1.93;;;0.90;;
14326;SDS011;7247;53.330;-1.180;2023-05-15T13:30:05;3.50;;;1.10;;
14326;SDS011;7247;53.330;-1.180;2023-05-15T13:32:32;1.97;;;1.00;;
14326;SDS011;7247;53.330;-1.180;2023-05-15T13:34:58;2.37;;;1.20;;
14326;SDS011;7247;53.330;-1.180;2023-05-15T13:37:25;2.17;;;1.10;;
14326;SDS011;7247;53.330;-1.180;2023-05-15T13:39:51;2.00;;;0.90;;
14326;SDS011;7247;53.330;-1.180;2023-05-15T13:42:18;3.47;;;1.10;;
14326;SDS011;7247;53.330;-1.180;2023-05-15T13:44:45;1.40;;;1.00;;
14326;SDS011;7247;53.330;-1.180;2023-05-15T13:47:12;1.63;;;1.10;;
14326;SDS011;7247;53.330;-1.180;2023-05-15T13:49:38;2.07;;;0.97;;
14326;SDS011;7247;53.330;-1.180;2023-05-15T13:52:05;2.53;;;1.10;;
14326;SDS011;7247;53.330;-1.180;2023-05-15T13:54:31;2.37;;;1.10;;
14326;SDS011;7247;53.330;-1.180;2023-05-15T13:56:58;4.20;;;1.23;;
14326;SDS011;7247;53.330;-1.180;2023-05-15T13:59:25;4.13;;;1.30;;
14326;SDS011;7247;53.330;-1.180;2023-05-15T14:01:53;3.22;;;1.00;;
14326;SDS011;7247;53.330;-1.180;2023-05-15T14:04:19;2.10;;;1.17;;
14326;SDS011;7247;53.330;-1.180;2023-05-15T14:06:46;3.15;;;1.25;;
14326;SDS011;7247;53.330;-1.180;2023-05-15T14:09:12;2.55;;;1.00;;
14326;SDS011;7247;53.330;-1.180;2023-05-15T14:11:38;2.55;;;1.17;;
14326;SDS011;7247;53.330;-1.180;2023-05-15T14:14:05;2.40;;;1.10;;
14326;SDS011;7247;53.330;-1.180;2023-05-15T14:16:31;3.20;;;1.27;;
14326;SDS011;7247;53.330;-1.180;2023-05-15T14:18:59;3.57;;;1.23;;
14326;SDS011;7247;53.330;-1.180;2023-05-15T14:21:26;1.67;;;1.00;;
14326;SDS011;7247;53.330;-1.180;2023-05-15T14:23:52;3.07;;;1.00;;
14326;SDS011;7247;53.330;-1.180;2023-05-15T14:26:19;4.40;;;0.90;;
14326;SDS011;7247;53.330;-1.180;2023-05-15T14:28:46;2.47;;;1.00;;
14326;SDS011;7247;53.330;-1.180;2023-05-15T14:31:12;3.47;;;1.23;;
14326;SDS011;7247;53.330;-1.180;2023-05-15T14:33:38;3.45;;;1.08;;
14326;SDS011;7247;53.330;-1.180;2023-05-15T14:36:06;4.00;;;1.17;;
14326;SDS011;7247;53.330;-1.180;2023-05-15T14:38:33;2.17;;;1.10;;
14326;SDS011;7247;53.330;-1.180;2023-05-15T14:40:59;3.37;;;1.20;;
14326;SDS011;7247;53.330;-1.180;2023-05-15T14:43:26;3.80;;;1.13;;
14326;SDS011;7247;53.330;-1.180;2023-05-15T14:45:52;1.40;;;1.00;;
14326;SDS011;7247;53.330;-1.180;2023-05-15T14:48:19;2.23;;;1.10;;
14326;SDS011;7247;53.330;-1.180;2023-05-15T14:50:46;2.50;;;0.93;;